Hillerman, Illinois
Current Conditions -  °F | °C
As of 2:35 AM on Monday 24 Nov 2014 (Local Time) from KM30 Reporting Station
Overcast Overcast  
Wind Chill: 61°   Ceiling: 1700
Heat Index: 61°   Visibility: 10mi
Dew Point: 60°   Wind: 18mph
Humidity: 96%   Direction: 190°S
Pressure: 29.3"   Gusts: 24mph
Location:  37.2537°N, 89.0147°W
Report Text: KM30 240835Z AUTO 19016G21KT 10SM BKN017 BKN024 OVC034 16/16 A2930 RMK AO2 LTG DSNT W AND NW T01620156
Loading
Personal Weather Stations






























Interactive Weather Map New forecast layout! Learn more

10-Day Weather Forecast

Advertisements
Track Severe Weather on mobile